aviador You're here:

KHBI Decoded Metar

ASHEBORO MUNI in NC, USA
Report Time2018-06-24 22:45:00
UTC Time2018-06-24 22:49:04
Flight Rules vfr VFR
Wind230° at 05 Gusting to 15 kt
W.Decomp.*RWY 21: 4.4 kt HW 2.3 kt RCW
W.Rank230° ranks 9
Current wind is below 230° avg. (5.7)
Visibility9999 m
Phenomena:N/A
Clouds:N/A
Expected CloudBase > 6,000 ft AGL from Temp-Dew spread
CeilingNone
Temp33°C (ISA +19)
Dew Point18°C (41% RH)
Heat Index34.0°C
QNH1014 hPa
Density Alt3,117 ft
Elevation673 ft
Report Wrong Elevation
Raw Report
KHBI 242245Z AUTO 23005G15KT 10SM CLR 33/18 A2995 RMK AO2
T03340183=

Extra information for KHBI:More info

Metar Taf Metar & Taf Last 4 Metars F.Rules Stats Wind Profile Meteogram Temp Stats Airport Information Weather charts Add Link Nearby VenuesMetar ALERT Operation Metar Decoded Social comments

AIRNAV info for KHBI